Time;durP1;ratioP1;P1;durP2;ratioP2;P2;SDS_P1;SDS_P2;PMS_P1;PMS_P2;Temp;Humidity;BMP_temperature;BMP_pressure;BME280_temperature;BME280_humidity;BME280_pressure;Samples;Min_cycle;Max_cycle;Signal;HPM_P1;HPM_P2
2023/06/02 00:00:05;;;;;;;18.15;11.57;;;20.20;99.90;;;;;;5080955;28;20035;-72
2023/06/02 00:03:14;;;;;;;18.63;12.27;;;20.10;99.90;;;;;;5081057;28;20051;-72
2023/06/02 00:06:18;;;;;;;17.58;11.90;;;19.90;99.90;;;;;;5093072;28;20534;-72
2023/06/02 00:09:21;;;;;;;20.85;11.98;;;19.80;99.90;;;;;;5093199;28;20059;-73
2023/06/02 00:12:26;;;;;;;16.67;11.93;;;19.70;99.90;;;;;;5093007;28;20040;-72
2023/06/02 00:15:31;;;;;;;21.83;12.98;;;19.70;99.90;;;;;;5093216;28;20042;-73
2023/06/02 00:18:37;;;;;;;20.55;12.18;;;19.60;99.90;;;;;;5093148;28;20035;-72
2023/06/02 00:21:45;;;;;;;17.30;12.18;;;19.60;99.90;;;;;;5069030;28;20075;-72
2023/06/02 00:24:49;;;;;;;19.70;11.93;;;19.60;99.90;;;;;;5092940;28;20043;-72
2023/06/02 00:27:53;;;;;;;19.60;10.73;;;19.60;99.90;;;;;;5092929;28;20498;-72
2023/06/02 00:30:57;;;;;;;18.27;11.73;;;19.60;99.90;;;;;;5080649;28;20063;-72
2023/06/02 00:34:01;;;;;;;19.25;12.07;;;19.60;99.90;;;;;;5092855;28;20039;-72
2023/06/02 00:37:05;;;;;;;15.82;11.52;;;19.40;99.90;;;;;;5068880;28;20055;-72
2023/06/02 00:40:10;;;;;;;17.35;12.18;;;19.40;99.90;;;;;;5080203;28;20043;-72
2023/06/02 00:43:14;;;;;;;21.05;13.18;;;19.30;99.90;;;;;;5068854;28;20048;-72
2023/06/02 00:46:18;;;;;;;18.77;12.57;;;19.20;99.90;;;;;;5092369;28;20043;-73
2023/06/02 00:49:23;;;;;;;17.73;13.07;;;19.10;99.90;;;;;;5093136;28;20047;-73
2023/06/02 00:52:28;;;;;;;16.50;12.73;;;19.10;99.90;;;;;;5080268;28;20054;-73
2023/06/02 00:55:32;;;;;;;18.73;13.98;;;19.10;99.90;;;;;;5092453;28;20487;-73
2023/06/02 00:58:37;;;;;;;27.17;13.70;;;19.00;99.90;;;;;;5080014;28;20043;-73
2023/06/02 01:01:44;;;;;;;21.90;13.55;;;19.00;99.90;;;;;;5079925;28;20065;-73
2023/06/02 01:04:50;;;;;;;20.45;12.88;;;18.90;99.90;;;;;;5079848;28;20042;-73
2023/06/02 01:07:58;;;;;;;19.67;13.52;;;18.90;99.90;;;;;;5079846;28;20071;-73
2023/06/02 01:11:03;;;;;;;19.33;12.50;;;18.90;99.90;;;;;;5067887;28;20051;-73
2023/06/02 01:14:09;;;;;;;23.58;12.45;;;18.90;99.90;;;;;;5092952;28;20043;-73
2023/06/02 01:17:14;;;;;;;18.90;12.55;;;18.80;99.90;;;;;;5091948;28;20051;-73
2023/06/02 01:20:23;;;;;;;16.90;12.40;;;18.80;99.90;;;;;;5079658;28;20047;-73
2023/06/02 01:23:33;;;;;;;16.30;11.70;;;18.90;99.90;;;;;;5091872;28;20051;-73
2023/06/02 01:26:37;;;;;;;14.70;11.90;;;19.00;99.90;;;;;;5079349;28;20039;-73
2023/06/02 01:29:43;;;;;;;16.10;11.60;;;19.10;99.90;;;;;;5091558;28;20109;-73
2023/06/02 01:33:10;;;;;;;19.70;12.07;;;19.20;99.90;;;;;;5091875;28;20047;-74
2023/06/02 01:36:16;;;;;;;15.73;11.02;;;19.20;99.90;;;;;;5067739;28;20047;-73
2023/06/02 01:39:23;;;;;;;18.55;11.60;;;19.20;99.90;;;;;;5079192;28;20047;-73
2023/06/02 01:42:28;;;;;;;19.15;12.23;;;19.20;99.90;;;;;;5079479;28;20051;-73
2023/06/02 01:45:33;;;;;;;16.50;11.70;;;19.10;99.90;;;;;;5078832;28;20102;-73
2023/06/02 01:48:36;;;;;;;14.23;10.75;;;19.10;99.90;;;;;;5091393;28;20051;-73
2023/06/02 01:51:41;;;;;;;16.15;10.98;;;19.10;99.90;;;;;;5078939;28;20039;-73
2023/06/02 01:54:46;;;;;;;19.02;11.00;;;19.10;99.90;;;;;;5079110;28;20063;-73
2023/06/02 01:57:51;;;;;;;17.08;10.52;;;19.00;99.90;;;;;;5091373;28;20039;-73
2023/06/02 02:00:56;;;;;;;17.73;11.32;;;19.00;99.90;;;;;;5078965;28;20059;-73
2023/06/02 02:04:00;;;;;;;19.65;11.80;;;18.90;99.90;;;;;;5091325;28;20114;-73
2023/06/02 02:07:04;;;;;;;17.88;11.77;;;18.80;99.90;;;;;;5078374;28;20047;-73
2023/06/02 02:10:12;;;;;;;16.08;11.40;;;18.80;99.90;;;;;;5091317;28;20051;-73
2023/06/02 02:13:15;;;;;;;19.70;11.77;;;18.70;99.90;;;;;;5090815;28;20063;-73
2023/06/02 02:16:19;;;;;;;16.00;11.30;;;18.70;99.90;;;;;;5091129;28;20051;-73
2023/06/02 02:19:23;;;;;;;16.60;11.20;;;18.70;99.90;;;;;;5091171;28;20043;-73
2023/06/02 02:22:29;;;;;;;17.73;10.93;;;18.80;99.90;;;;;;5078520;28;20403;-73
2023/06/02 02:25:33;;;;;;;14.52;10.90;;;18.80;99.90;;;;;;5090812;28;20040;-73
2023/06/02 02:28:37;;;;;;;18.90;11.20;;;18.80;99.90;;;;;;5090802;28;20439;-73
2023/06/02 02:31:41;;;;;;;14.15;11.27;;;18.70;99.90;;;;;;5066851;28;20047;-73
2023/06/02 02:34:46;;;;;;;14.05;10.90;;;18.70;99.90;;;;;;5078413;28;20055;-73
2023/06/02 02:37:51;;;;;;;14.02;11.02;;;18.70;99.90;;;;;;5066797;28;20043;-73
2023/06/02 02:41:00;;;;;;;15.65;11.57;;;18.70;99.90;;;;;;5078095;28;20039;-73
2023/06/02 02:44:04;;;;;;;18.20;11.18;;;18.70;99.90;;;;;;5078463;28;20051;-71
2023/06/02 02:47:09;;;;;;;14.30;10.90;;;18.70;99.90;;;;;;5077962;28;20399;-72
2023/06/02 02:50:12;;;;;;;13.27;10.93;;;18.60;99.90;;;;;;5090829;28;20055;-72
2023/06/02 02:53:20;;;;;;;17.00;12.27;;;18.60;99.90;;;;;;5078539;28;20047;-71
2023/06/02 02:56:27;;;;;;;16.98;12.00;;;18.60;99.90;;;;;;5078008;28;20040;-73
2023/06/02 02:59:31;;;;;;;22.30;12.55;;;18.40;99.90;;;;;;5078296;28;20059;-73
2023/06/02 03:02:39;;;;;;;20.60;12.65;;;18.60;99.90;;;;;;5077959;28;20055;-73
2023/06/02 03:05:45;;;;;;;16.80;12.15;;;18.60;99.90;;;;;;5090821;28;20047;-73
2023/06/02 03:08:50;;;;;;;16.50;11.98;;;18.50;99.90;;;;;;5066756;28;20054;-73
2023/06/02 03:11:54;;;;;;;19.65;11.32;;;18.50;99.90;;;;;;5066625;28;20298;-73
2023/06/02 03:14:59;;;;;;;17.25;12.88;;;18.50;99.90;;;;;;5077978;28;20486;-73
2023/06/02 03:18:05;;;;;;;21.70;13.35;;;18.40;99.90;;;;;;5078070;28;20380;-73
2023/06/02 03:21:09;;;;;;;22.95;13.90;;;18.40;99.90;;;;;;5078114;28;20395;-73
2023/06/02 03:24:17;;;;;;;17.25;13.10;;;18.30;99.90;;;;;;5077768;28;20047;-72
2023/06/02 03:27:23;;;;;;;17.25;13.18;;;18.30;99.90;;;;;;5070536;28;20047;-72
2023/06/02 03:30:32;;;;;;;18.80;13.05;;;18.30;99.90;;;;;;5081289;28;20320;-72
2023/06/02 03:33:38;;;;;;;18.38;12.60;;;18.40;99.90;;;;;;5081706;28;20181;-73
2023/06/02 03:36:42;;;;;;;16.55;13.10;;;18.50;99.90;;;;;;5093817;28;20043;-74
2023/06/02 03:39:48;;;;;;;20.83;13.10;;;18.50;99.90;;;;;;5081405;28;20428;-73
2023/06/02 03:42:51;;;;;;;17.70;12.32;;;18.50;99.90;;;;;;5081177;28;20055;-73
2023/06/02 03:45:55;;;;;;;16.73;11.35;;;18.60;99.90;;;;;;5069913;28;20043;-73
2023/06/02 03:49:00;;;;;;;15.50;12.10;;;18.60;99.90;;;;;;5093807;28;20051;-73
2023/06/02 03:52:04;;;;;;;18.67;11.80;;;18.60;99.90;;;;;;5081288;28;20055;-73
2023/06/02 03:55:09;;;;;;;24.25;13.27;;;18.70;99.90;;;;;;5069695;28;20047;-72
2023/06/02 03:58:14;;;;;;;15.90;12.23;;;18.70;99.90;;;;;;5093481;28;20055;-73
2023/06/02 04:01:20;;;;;;;18.42;11.95;;;18.70;99.90;;;;;;5093093;28;20383;-73
2023/06/02 04:04:25;;;;;;;19.92;12.00;;;18.70;99.90;;;;;;5093591;28;20047;-73
2023/06/02 04:07:29;;;;;;;18.17;11.52;;;18.70;99.90;;;;;;5093013;28;20515;-73
2023/06/02 04:10:33;;;;;;;14.98;11.32;;;18.70;99.90;;;;;;5080907;28;20046;-72
2023/06/02 04:13:37;;;;;;;21.60;13.63;;;18.80;99.90;;;;;;5080606;28;20063;-72
2023/06/02 04:16:41;;;;;;;20.70;14.23;;;18.80;99.90;;;;;;5080773;28;20306;-72
2023/06/02 04:19:46;;;;;;;20.70;14.48;;;18.80;99.90;;;;;;5080688;28;20063;-72
2023/06/02 04:22:51;;;;;;;22.38;13.77;;;18.90;99.90;;;;;;5092899;28;20070;-72
2023/06/02 04:25:56;;;;;;;19.98;13.93;;;18.90;99.90;;;;;;5080284;28;20314;-73
2023/06/02 04:29:00;;;;;;;21.77;13.55;;;18.90;99.90;;;;;;5080424;28;20106;-72
2023/06/02 04:32:04;;;;;;;18.85;13.32;;;19.10;99.90;;;;;;5080457;28;20490;-73
2023/06/02 04:35:09;;;;;;;17.10;11.38;;;19.30;99.90;;;;;;5080207;28;20043;-73
2023/06/02 04:38:14;;;;;;;17.20;10.43;;;19.30;99.90;;;;;;5068495;28;20515;-72
2023/06/02 04:41:22;;;;;;;14.60;9.98;;;19.60;99.90;;;;;;5079930;28;20514;-73
2023/06/02 04:44:26;;;;;;;16.13;9.65;;;19.90;99.90;;;;;;5080435;28;20056;-73
2023/06/02 04:47:31;;;;;;;20.63;11.88;;;20.20;99.90;;;;;;5080193;28;20087;-72
2023/06/02 04:50:36;;;;;;;20.90;10.48;;;20.50;99.90;;;;;;5080270;28;20387;-72
2023/06/02 04:53:41;;;;;;;14.93;9.70;;;20.80;99.20;;;;;;5080042;28;20047;-73
2023/06/02 04:56:46;;;;;;;14.82;10.15;;;20.90;98.80;;;;;;5092469;28;20050;-73
2023/06/02 04:59:53;;;;;;;19.10;9.88;;;21.00;98.60;;;;;;5080202;28;20043;-73
2023/06/02 05:02:57;;;;;;;13.93;10.20;;;21.10;98.40;;;;;;5079908;28;20066;-73
2023/06/02 05:06:02;;;;;;;15.10;10.25;;;21.30;98.10;;;;;;5079867;28;20059;-72
2023/06/02 05:09:07;;;;;;;17.15;9.90;;;21.50;97.60;;;;;;5079968;28;20067;-73
2023/06/02 05:12:12;;;;;;;16.80;9.52;;;21.80;97.30;;;;;;5079727;28;20506;-73
2023/06/02 05:15:16;;;;;;;17.98;9.98;;;22.00;96.80;;;;;;5079969;28;20047;-72
2023/06/02 05:18:22;;;;;;;13.52;9.57;;;22.20;96.10;;;;;;5079605;28;20046;-73
2023/06/02 05:21:28;;;;;;;13.68;9.02;;;22.10;96.10;;;;;;5079200;28;20039;-72
2023/06/02 05:24:33;;;;;;;19.70;11.70;;;21.90;96.20;;;;;;5079672;28;20051;-73
2023/06/02 05:27:37;;;;;;;20.60;13.40;;;21.90;96.60;;;;;;5079403;28;20070;-73
2023/06/02 05:30:41;;;;;;;24.75;12.73;;;21.80;96.50;;;;;;5079510;28;20047;-73
2023/06/02 05:33:45;;;;;;;19.67;12.80;;;21.80;97.50;;;;;;5091829;28;20054;-72
2023/06/02 05:36:49;;;;;;;20.35;11.85;;;22.10;97.30;;;;;;5091763;28;20050;-73
2023/06/02 05:39:53;;;;;;;22.05;12.65;;;22.30;97.10;;;;;;5079199;28;20475;-72
2023/06/02 05:42:58;;;;;;;19.98;11.38;;;22.20;96.70;;;;;;5078973;28;20055;-73
2023/06/02 05:46:03;;;;;;;18.33;12.20;;;22.10;97.60;;;;;;5090484;28;20039;-73
2023/06/02 05:49:06;;;;;;;21.55;13.10;;;22.20;97.50;;;;;;5078276;28;20043;-73
2023/06/02 05:52:10;;;;;;;20.48;13.48;;;22.30;97.60;;;;;;5078710;28;20039;-72
2023/06/02 05:55:16;;;;;;;14.75;10.88;;;22.50;97.40;;;;;;5079340;28;20043;-73
2023/06/02 05:58:21;;;;;;;15.35;10.98;;;22.80;96.90;;;;;;5090701;28;20059;-72
2023/06/02 06:01:25;;;;;;;21.75;11.85;;;22.80;96.00;;;;;;5067511;28;20051;-72
2023/06/02 06:04:30;;;;;;;16.30;11.30;;;22.50;96.30;;;;;;5078621;28;20164;-72
2023/06/02 06:07:34;;;;;;;18.58;11.27;;;22.40;96.30;;;;;;5078547;28;20554;-73
2023/06/02 06:10:42;;;;;;;20.75;10.32;;;22.70;96.60;;;;;;5091010;28;20047;-72
2023/06/02 06:13:46;;;;;;;12.25;9.55;;;23.20;96.10;;;;;;5078803;28;20055;-71
2023/06/02 06:16:50;;;;;;;13.82;10.80;;;23.60;95.10;;;;;;5078600;28;20412;-72
2023/06/02 06:19:54;;;;;;;16.23;11.18;;;23.80;94.60;;;;;;5067001;28;20511;-72
2023/06/02 06:22:58;;;;;;;16.58;10.02;;;23.80;94.80;;;;;;5078315;28;20059;-73
2023/06/02 06:26:05;;;;;;;12.00;9.70;;;24.20;94.30;;;;;;5066885;28;20047;-73
2023/06/02 06:29:10;;;;;;;12.65;10.20;;;24.40;94.00;;;;;;5078541;28;20047;-72
2023/06/02 06:32:15;;;;;;;16.08;10.98;;;24.70;94.10;;;;;;5090133;28;20047;-72
2023/06/02 06:35:20;;;;;;;12.82;9.68;;;25.00;93.40;;;;;;5090733;28;20122;-73
2023/06/02 06:38:24;;;;;;;12.70;9.60;;;25.20;92.80;;;;;;5078942;28;20051;-74
2023/06/02 06:41:28;;;;;;;19.00;9.55;;;25.30;92.90;;;;;;5066517;28;20039;-74
2023/06/02 06:44:33;;;;;;;11.45;8.98;;;25.50;92.90;;;;;;5090882;28;20055;-75
2023/06/02 06:47:37;;;;;;;15.18;9.45;;;25.80;92.30;;;;;;5078445;28;20416;-76
2023/06/02 06:50:41;;;;;;;18.38;9.23;;;26.00;92.10;;;;;;5078505;28;20059;-75
2023/06/02 06:53:45;;;;;;;17.45;9.02;;;26.20;91.60;;;;;;5090767;28;20395;-74
2023/06/02 06:56:49;;;;;;;18.02;9.20;;;26.50;91.70;;;;;;5078223;28;20039;-75
2023/06/02 06:59:54;;;;;;;15.73;8.73;;;26.70;91.30;;;;;;5091328;28;20040;-75
2023/06/02 07:02:58;;;;;;;14.18;9.77;;;27.00;91.20;;;;;;5094147;28;20122;-75
2023/06/02 07:06:02;;;;;;;16.98;9.20;;;27.30;91.00;;;;;;5081977;28;20047;-75
2023/06/02 07:09:08;;;;;;;14.75;9.63;;;27.40;90.80;;;;;;5094542;28;20051;-75
2023/06/02 07:12:12;;;;;;;18.23;12.15;;;27.70;90.70;;;;;;5094458;28;20039;-69
2023/06/02 07:15:16;;;;;;;14.77;9.55;;;27.70;90.70;;;;;;5094369;28;20043;-69
2023/06/02 07:18:20;;;;;;;17.42;14.90;;;27.70;90.10;;;;;;5094459;28;20061;-69
2023/06/02 07:21:25;;;;;;;14.50;9.48;;;27.70;89.00;;;;;;5094113;28;20047;-69
2023/06/02 07:24:29;;;;;;;14.13;9.10;;;27.40;88.00;;;;;;5094290;28;20051;-68
2023/06/02 07:27:33;;;;;;;12.55;7.40;;;27.40;88.50;;;;;;5093721;28;20494;-69
2023/06/02 07:30:38;;;;;;;9.90;7.53;;;27.50;87.30;;;;;;5094210;28;20497;-68
2023/06/02 07:33:45;;;;;;;12.43;7.57;;;27.80;87.20;;;;;;5093767;28;20391;-69
2023/06/02 07:36:49;;;;;;;12.93;8.70;;;28.00;86.90;;;;;;5093614;28;20095;-69
2023/06/02 07:39:53;;;;;;;12.10;8.15;;;28.10;87.20;;;;;;5093929;28;20051;-67
2023/06/02 07:42:57;;;;;;;15.48;9.00;;;27.90;86.20;;;;;;5093789;28;20051;-69
2023/06/02 07:46:01;;;;;;;12.48;8.43;;;28.00;86.20;;;;;;5093692;28;20384;-68
2023/06/02 07:49:06;;;;;;;11.27;7.13;;;28.20;85.90;;;;;;5081106;28;20039;-69
2023/06/02 07:52:10;;;;;;;11.63;7.20;;;28.40;83.80;;;;;;5093597;28;20043;-68
2023/06/02 07:55:13;;;;;;;7.88;6.65;;;28.40;83.20;;;;;;5093562;28;20043;-70
2023/06/02 07:58:17;;;;;;;15.38;8.48;;;28.10;83.20;;;;;;5093788;28;20039;-68
2023/06/02 08:01:21;;;;;;;13.45;7.93;;;28.10;83.30;;;;;;5093501;28;20043;-68
2023/06/02 08:07:48;;;;;;;12.15;8.23;;;28.40;83.80;;;;;;5093095;28;20055;-69
2023/06/02 08:10:51;;;;;;;9.05;7.13;;;28.50;84.00;;;;;;5093287;28;20503;-69
2023/06/02 08:13:56;;;;;;;10.35;6.63;;;28.70;82.20;;;;;;5093021;28;20512;-68
2023/06/02 08:17:01;;;;;;;7.63;6.28;;;28.90;83.30;;;;;;5093278;28;20391;-69
2023/06/02 08:20:07;;;;;;;14.20;6.50;;;29.10;81.60;;;;;;5093003;28;20487;-68
2023/06/02 08:23:10;;;;;;;10.68;6.50;;;29.20;81.50;;;;;;5093129;28;20439;-69
2023/06/02 08:26:15;;;;;;;10.65;7.13;;;29.30;82.30;;;;;;5093004;28;20531;-70
2023/06/02 08:29:20;;;;;;;12.52;6.65;;;29.50;81.70;;;;;;5093223;28;20518;-68
2023/06/02 08:32:24;;;;;;;7.63;5.82;;;29.50;80.40;;;;;;5093293;28;20628;-68
2023/06/02 08:35:32;;;;;;;7.90;5.65;;;29.20;79.40;;;;;;5093166;28;20047;-70
2023/06/02 08:38:40;;;;;;;10.80;6.05;;;29.30;78.50;;;;;;5092751;28;20051;-67
2023/06/02 08:41:48;;;;;;;7.93;6.38;;;29.10;78.00;;;;;;5092575;28;20051;-69
2023/06/02 08:44:52;;;;;;;7.63;5.60;;;28.90;77.40;;;;;;5092403;28;20058;-70
2023/06/02 08:47:57;;;;;;;6.70;5.25;;;28.80;79.20;;;;;;5092663;28;20502;-67
2023/06/02 08:51:08;;;;;;;10.02;5.82;;;29.00;80.10;;;;;;5092344;28;20043;-68
2023/06/02 08:54:13;;;;;;;15.75;7.03;;;29.30;79.50;;;;;;5092757;28;20043;-69
2023/06/02 08:57:20;;;;;;;13.15;8.10;;;29.40;78.70;;;;;;5092046;28;20455;-70
2023/06/02 09:00:24;;;;;;;6.07;5.30;;;29.40;79.00;;;;;;5092427;28;20039;-69
2023/06/02 09:03:27;;;;;;;8.23;6.30;;;29.40;79.50;;;;;;5092155;28;20051;-69
2023/06/02 09:06:31;;;;;;;9.65;7.15;;;29.40;77.90;;;;;;5091994;28;20039;-68
2023/06/02 09:09:46;;;;;;;9.77;7.03;;;29.40;77.90;;;;;;5079747;28;20051;-68
2023/06/02 09:12:50;;;;;;;9.63;5.95;;;29.30;78.40;;;;;;5091872;28;20363;-68
2023/06/02 09:16:02;;;;;;;15.20;13.55;;;29.40;78.10;;;;;;5091879;28;20043;-69
2023/06/02 09:19:06;;;;;;;7.03;5.63;;;29.50;77.30;;;;;;5092109;28;20317;-68
2023/06/02 09:22:10;;;;;;;10.55;5.13;;;29.50;76.90;;;;;;5091719;28;20039;-68
2023/06/02 09:25:22;;;;;;;9.27;5.35;;;29.60;77.50;;;;;;5090014;28;20602;-68
2023/06/02 09:28:26;;;;;;;6.45;5.00;;;29.70;76.50;;;;;;5091898;28;20035;-69
2023/06/02 09:31:58;;;;;;;9.48;5.78;;;29.60;76.40;;;;;;5091814;28;20047;-68
2023/06/02 09:35:02;;;;;;;5.55;4.72;;;29.70;75.80;;;;;;5091505;28;20047;-71
2023/06/02 09:38:10;;;;;;;7.18;5.57;;;29.70;76.50;;;;;;5091864;28;20510;-70
2023/06/02 09:41:17;;;;;;;10.90;5.45;;;29.60;74.90;;;;;;5091263;28;20051;-69
2023/06/02 09:44:23;;;;;;;5.15;4.40;;;29.50;75.00;;;;;;5091384;28;20063;-71
2023/06/02 09:47:27;;;;;;;10.38;5.07;;;29.60;74.80;;;;;;5091050;28;20035;-68
2023/06/02 09:50:37;;;;;;;11.55;6.88;;;29.60;73.40;;;;;;5091126;28;20541;-69
2023/06/02 09:53:41;;;;;;;8.35;5.03;;;29.60;73.60;;;;;;5078549;28;20047;-68
2023/06/02 09:56:46;;;;;;;8.90;5.30;;;29.50;73.80;;;;;;5091177;28;20071;-69
2023/06/02 09:59:51;;;;;;;6.93;5.30;;;29.50;74.00;;;;;;5091434;28;20035;-69
2023/06/02 10:02:55;;;;;;;7.47;5.05;;;29.30;74.20;;;;;;5078517;28;20443;-69
2023/06/02 10:06:15;;;;;;;16.98;11.10;;;29.30;75.10;;;;;;5090719;28;20050;-69
2023/06/02 10:09:31;;;;;;;17.83;11.60;;;29.50;80.90;;;;;;5091079;28;20055;-69
2023/06/02 10:12:50;;;;;;;16.17;10.80;;;29.60;83.10;;;;;;5090947;28;20051;-69
2023/06/02 10:16:44;;;;;;;19.40;11.70;;;29.70;83.90;;;;;;5091140;28;20047;-69
2023/06/02 10:19:53;;;;;;;15.38;11.70;;;29.70;84.00;;;;;;5021160;28;20046;-70
2023/06/02 10:23:38;;;;;;;22.08;10.75;;;29.70;84.00;;;;;;5090840;28;20427;-69
2023/06/02 10:26:43;;;;;;;14.60;10.93;;;29.70;84.50;;;;;;5090640;28;20122;-69
2023/06/02 10:29:54;;;;;;;18.30;10.23;;;29.70;84.60;;;;;;5078632;28;20046;-69
2023/06/02 10:32:58;;;;;;;16.55;9.70;;;29.60;84.00;;;;;;5090703;28;20126;-69
2023/06/02 10:36:03;;;;;;;14.60;9.55;;;29.60;82.90;;;;;;5090108;28;20395;-69
2023/06/02 10:39:35;;;;;;;11.60;10.13;;;29.50;84.40;;;;;;5090505;28;20043;-68
2023/06/02 10:43:08;;;;;;;12.55;9.68;;;29.50;84.20;;;;;;5078205;28;20407;-68
2023/06/02 10:46:17;;;;;;;14.55;9.57;;;29.50;84.00;;;;;;5078378;28;20059;-69
2023/06/02 10:49:53;;;;;;;13.57;9.63;;;29.50;85.00;;;;;;5090617;28;20044;-73
2023/06/02 10:53:00;;;;;;;14.23;9.68;;;29.40;85.70;;;;;;5090534;28;20063;-69
2023/06/02 10:56:35;;;;;;;16.27;9.75;;;29.40;85.30;;;;;;5077905;28;20539;-69
2023/06/02 10:59:39;;;;;;;10.82;8.25;;;29.50;85.10;;;;;;5090277;28;20035;-69
2023/06/02 11:02:45;;;;;;;13.10;10.90;;;29.40;84.90;;;;;;5090614;28;20055;-69
2023/06/02 11:05:50;;;;;;;14.10;9.73;;;29.30;85.60;;;;;;5090567;28;20051;-69
2023/06/02 11:09:14;;;;;;;12.48;9.80;;;29.30;86.60;;;;;;5090712;28;20506;-72
2023/06/02 11:12:19;;;;;;;11.90;9.90;;;29.10;86.50;;;;;;5090769;28;20051;-70
2023/06/02 11:15:24;;;;;;;12.55;9.85;;;29.10;85.70;;;;;;5090468;28;20310;-69
2023/06/02 11:18:28;;;;;;;13.15;9.13;;;29.00;86.90;;;;;;5078344;28;20042;-69
2023/06/02 11:21:33;;;;;;;13.57;9.68;;;28.90;86.50;;;;;;5078045;28;20051;-69
2023/06/02 11:24:37;;;;;;;11.63;8.57;;;29.00;86.10;;;;;;5090588;28;20067;-69
2023/06/02 11:27:46;;;;;;;11.82;8.90;;;29.00;86.10;;;;;;5090674;28;20051;-69
2023/06/02 11:31:05;;;;;;;9.57;8.30;;;29.00;86.60;;;;;;5090181;28;20039;-69
2023/06/02 11:34:15;;;;;;;17.05;8.27;;;29.00;86.30;;;;;;5090287;28;20043;-69
2023/06/02 11:37:20;;;;;;;10.73;7.75;;;29.00;85.70;;;;;;5090257;28;20051;-69
2023/06/02 11:40:28;;;;;;;11.00;8.55;;;29.00;85.00;;;;;;5090229;28;20043;-69
2023/06/02 11:43:33;;;;;;;12.52;9.35;;;29.00;84.40;;;;;;5090200;28;20059;-68
2023/06/02 11:46:41;;;;;;;11.43;8.57;;;28.90;83.60;;;;;;5090471;28;20047;-68
2023/06/02 11:49:46;;;;;;;14.93;9.20;;;28.90;85.20;;;;;;5093718;28;20297;-67
2023/06/02 11:52:51;;;;;;;13.45;9.82;;;28.90;83.70;;;;;;5093810;28;20039;-68
2023/06/02 11:55:55;;;;;;;11.15;8.43;;;28.90;83.70;;;;;;5093655;28;20526;-69
2023/06/02 11:58:59;;;;;;;12.15;8.30;;;28.80;82.40;;;;;;5093567;28;20047;-71
2023/06/02 12:02:03;;;;;;;10.77;8.30;;;28.80;82.70;;;;;;5093850;28;20043;-68
2023/06/02 12:05:09;;;;;;;8.48;7.30;;;28.80;82.90;;;;;;5093244;28;20055;-68
2023/06/02 12:08:20;;;;;;;8.32;7.15;;;28.80;82.60;;;;;;5093345;28;20066;-69
2023/06/02 12:11:25;;;;;;;10.00;7.50;;;28.80;82.80;;;;;;5093181;28;20042;-68
2023/06/02 12:14:37;;;;;;;11.75;7.38;;;28.70;82.60;;;;;;5093715;28;20534;-69
2023/06/02 12:17:44;;;;;;;9.60;8.55;;;28.60;83.00;;;;;;5093292;28;20490;-69
2023/06/02 12:20:48;;;;;;;14.30;8.38;;;28.50;82.80;;;;;;5080663;28;20047;-69
2023/06/02 12:23:53;;;;;;;10.02;7.78;;;28.40;83.00;;;;;;5092997;28;20079;-70
2023/06/02 12:26:58;;;;;;;11.65;9.10;;;28.30;83.50;;;;;;5093308;28;20039;-69
2023/06/02 12:30:03;;;;;;;14.05;9.95;;;28.30;83.10;;;;;;5093241;28;20388;-70
2023/06/02 12:33:11;;;;;;;10.27;8.27;;;28.30;83.60;;;;;;5092871;28;20055;-69
2023/06/02 12:36:14;;;;;;;12.25;8.57;;;28.40;83.50;;;;;;5093021;28;20043;-70
2023/06/02 12:39:19;;;;;;;12.77;9.38;;;28.40;82.80;;;;;;5092887;28;20404;-69
2023/06/02 12:42:23;;;;;;;10.32;8.45;;;28.40;82.90;;;;;;5093103;28;20383;-70
2023/06/02 12:45:28;;;;;;;11.18;7.57;;;28.50;83.30;;;;;;5080446;28;20503;-68
2023/06/02 12:48:32;;;;;;;10.77;8.23;;;28.50;82.40;;;;;;5092498;28;20039;-69
2023/06/02 12:51:36;;;;;;;10.35;8.18;;;28.60;82.30;;;;;;5092871;28;20519;-70
2023/06/02 12:54:41;;;;;;;9.35;8.35;;;28.60;82.30;;;;;;5092509;28;20047;-69
2023/06/02 12:57:46;;;;;;;11.25;8.10;;;28.60;82.00;;;;;;5091816;28;20051;-69
2023/06/02 13:00:50;;;;;;;9.75;7.72;;;28.50;81.60;;;;;;5092771;28;20047;-69
2023/06/02 13:03:55;;;;;;;10.18;7.85;;;28.40;81.30;;;;;;5092439;28;20072;-69
2023/06/02 13:07:01;;;;;;;15.95;8.10;;;28.30;81.40;;;;;;5079684;28;20245;-69
2023/06/02 13:10:10;;;;;;;10.02;8.05;;;28.30;81.70;;;;;;5092455;28;20051;-70
2023/06/02 13:13:14;;;;;;;10.48;7.60;;;28.30;81.10;;;;;;5079729;28;20055;-68
2023/06/02 13:16:18;;;;;;;10.02;7.90;;;28.30;81.30;;;;;;5092045;28;20062;-69
2023/06/02 13:19:22;;;;;;;10.85;6.97;;;28.30;81.30;;;;;;5092179;28;20047;-69
2023/06/02 13:22:28;;;;;;;8.88;7.32;;;28.30;81.00;;;;;;5092043;28;20047;-68
2023/06/02 13:25:33;;;;;;;9.50;6.85;;;28.20;79.50;;;;;;5092194;28;20055;-69
2023/06/02 13:28:37;;;;;;;9.50;7.63;;;28.10;79.70;;;;;;5091835;28;20059;-68
2023/06/02 13:31:41;;;;;;;12.02;8.07;;;27.90;79.90;;;;;;5091875;28;20062;-69
2023/06/02 13:34:57;;;;;;;14.40;8.02;;;27.90;80.60;;;;;;5091937;28;20031;-67
2023/06/02 13:38:00;;;;;;;12.23;8.00;;;27.80;80.70;;;;;;5091855;28;20098;-68
2023/06/02 13:41:04;;;;;;;9.70;8.60;;;27.70;80.60;;;;;;5091496;28;20055;-70
2023/06/02 13:44:11;;;;;;;14.98;8.05;;;27.70;81.10;;;;;;5091391;28;20058;-69
2023/06/02 13:47:15;;;;;;;14.27;7.60;;;27.60;81.70;;;;;;5091923;28;20047;-69
2023/06/02 13:50:19;;;;;;;8.57;6.90;;;27.50;82.90;;;;;;5091281;28;20404;-68
2023/06/02 13:53:23;;;;;;;12.80;6.90;;;27.60;83.50;;;;;;5091313;28;20042;-68
2023/06/02 13:56:27;;;;;;;9.45;7.47;;;27.60;83.60;;;;;;5091690;28;20039;-68
2023/06/02 13:59:32;;;;;;;10.88;6.82;;;27.70;84.00;;;;;;5091443;28;20106;-69
2023/06/02 14:02:36;;;;;;;12.23;6.57;;;27.70;84.70;;;;;;5091201;28;20218;-69
2023/06/02 14:05:40;;;;;;;7.07;5.43;;;27.60;84.90;;;;;;5091130;28;20503;-68
2023/06/02 14:08:45;;;;;;;11.05;6.72;;;27.50;83.60;;;;;;5091210;28;20059;-69
2023/06/02 14:11:49;;;;;;;11.50;6.00;;;27.50;84.40;;;;;;5091148;28;20047;-68
2023/06/02 14:14:52;;;;;;;10.77;6.10;;;27.50;83.80;;;;;;5090925;28;20620;-69
2023/06/02 14:17:57;;;;;;;7.80;5.93;;;27.40;84.20;;;;;;5091411;28;20035;-69
2023/06/02 14:21:01;;;;;;;9.18;5.93;;;27.40;85.50;;;;;;5091046;28;20050;-69
2023/06/02 14:24:05;;;;;;;8.95;6.05;;;27.40;85.90;;;;;;5090782;28;20066;-69
2023/06/02 14:27:09;;;;;;;14.50;6.13;;;27.40;86.00;;;;;;5078754;28;20046;-68
2023/06/02 14:30:13;;;;;;;10.43;6.32;;;27.40;86.10;;;;;;5091050;28;20043;-68
2023/06/02 14:33:17;;;;;;;16.98;8.70;;;27.40;87.40;;;;;;5091087;28;20051;-67
2023/06/02 14:36:22;;;;;;;16.75;9.23;;;27.40;87.40;;;;;;5090960;28;20519;-69
2023/06/02 14:39:26;;;;;;;9.73;6.20;;;27.40;88.00;;;;;;5090879;28;20035;-68
2023/06/02 14:42:30;;;;;;;16.27;6.88;;;27.40;88.00;;;;;;5090781;28;20043;-68
2023/06/02 14:45:33;;;;;;;8.15;6.05;;;27.40;88.40;;;;;;5090396;28;20055;-69
2023/06/02 14:48:38;;;;;;;6.60;5.25;;;27.30;87.80;;;;;;5090614;28;20039;-68
2023/06/02 14:51:42;;;;;;;8.60;6.00;;;27.30;87.10;;;;;;5090698;28;20059;-74
2023/06/02 14:54:46;;;;;;;7.72;5.55;;;27.30;87.60;;;;;;5078242;28;20063;-73
2023/06/02 14:57:50;;;;;;;13.60;6.13;;;27.40;87.70;;;;;;5090561;28;20047;-73
2023/06/02 15:00:54;;;;;;;7.13;5.95;;;27.40;87.60;;;;;;5090580;28;20039;-73
2023/06/02 15:03:58;;;;;;;9.20;5.55;;;27.30;88.10;;;;;;5090409;28;20530;-73
2023/06/02 15:07:02;;;;;;;10.00;5.90;;;27.30;87.90;;;;;;5089638;28;20368;-73
2023/06/02 15:10:07;;;;;;;10.23;6.05;;;27.30;87.40;;;;;;5090528;28;20043;-73
2023/06/02 15:13:11;;;;;;;12.20;5.78;;;27.20;86.60;;;;;;5090351;28;20047;-73
2023/06/02 15:16:15;;;;;;;12.48;6.00;;;27.20;86.70;;;;;;5066356;28;20039;-72
2023/06/02 15:19:19;;;;;;;6.75;5.78;;;27.20;87.00;;;;;;5090613;28;20043;-73
2023/06/02 15:22:23;;;;;;;5.72;5.07;;;27.30;87.30;;;;;;5093378;28;20499;-74
2023/06/02 15:25:27;;;;;;;9.65;5.90;;;27.40;87.40;;;;;;5094226;28;20051;-72
2023/06/02 15:28:32;;;;;;;10.48;5.85;;;27.50;87.00;;;;;;5093814;28;20399;-73
2023/06/02 15:31:36;;;;;;;9.30;5.47;;;27.50;86.30;;;;;;5091700;28;20395;-73
2023/06/02 15:34:40;;;;;;;9.45;5.97;;;27.50;85.50;;;;;;5092735;28;20245;-72
2023/06/02 15:37:43;;;;;;;10.32;5.43;;;27.50;84.60;;;;;;5080407;28;20053;-73
2023/06/02 15:40:48;;;;;;;7.55;4.93;;;27.40;85.30;;;;;;5092767;28;20039;-73
2023/06/02 15:43:52;;;;;;;5.45;4.95;;;27.50;85.10;;;;;;5092717;28;20055;-71
2023/06/02 15:46:56;;;;;;;18.58;13.02;;;27.50;84.20;;;;;;5092443;28;20047;-73
2023/06/02 15:50:01;;;;;;;17.50;9.05;;;27.40;84.90;;;;;;5081463;28;20050;-72
2023/06/02 15:53:05;;;;;;;8.18;6.28;;;27.00;80.20;;;;;;5093352;28;20039;-73
2023/06/02 15:56:09;;;;;;;8.45;5.75;;;26.70;81.00;;;;;;5080260;28;20051;-73